< < Back
Terminal Aerodrome Forecast


Current Version              Previous Versions:   1  2  3  4  5  6  7  8  9  

Terminal Aerodrome Forecast

827
FTUS44 KHUN 290524
TAFHSV
TAF
KHSV 290524Z 2906/3006 35006KT P6SM FEW050
      TEMPO 2906/2910 SCT070=

Latest METAR

355
SAUS80 KWBC 290700
MTRHSV
METAR KHSV 290653Z AUTO 36005KT 10SM SCT080 21/17 A3002 RMK AO2 SLP157
T02060167


USA.gov is the U.S. government's official web portal to all federal, state and local government web resources and services.